Time;durP1;ratioP1;P1;durP2;ratioP2;P2;SDS_P1;SDS_P2;PMS_P1;PMS_P2;Temp;Humidity;BMP_temperature;BMP_pressure;BME280_temperature;BME280_humidity;BME280_pressure;Samples;Min_cycle;Max_cycle;Signal;HPM_P1;HPM_P2
2022/03/12 00:01:55;;;;;;;7.55;3.80;;;;;;;;;;5016410;28;20106;-71
2022/03/12 00:04:22;;;;;;;7.63;3.85;;;;;;;;;;5015907;28;20119;-71
2022/03/12 00:06:49;;;;;;;7.88;5.05;;;;;;;;;;5015873;28;20048;-71
2022/03/12 00:09:15;;;;;;;6.10;3.47;;;;;;;;;;5016282;28;20045;-71
2022/03/12 00:11:56;;;;;;;8.10;4.75;;;;;;;;;;5016240;28;20107;-71
2022/03/12 00:14:23;;;;;;;10.85;4.78;;;;;;;;;;5016653;28;20119;-71
2022/03/12 00:16:50;;;;;;;8.98;4.43;;;;;;;;;;5015798;28;20116;-71
2022/03/12 00:19:16;;;;;;;8.93;4.68;;;;;;;;;;5016744;28;20141;-71
2022/03/12 00:21:43;;;;;;;11.32;4.82;;;;;;;;;;5015885;28;20050;-71
2022/03/12 00:24:12;;;;;;;7.95;4.20;;;;;;;;;;5015877;28;20042;-71
2022/03/12 00:26:39;;;;;;;7.38;4.43;;;;;;;;;;5015911;28;20081;-71
2022/03/12 00:29:05;;;;;;;6.93;3.92;;;;;;;;;;5015725;28;20045;-71
2022/03/12 00:31:33;;;;;;;8.95;4.53;;;;;;;;;;4998026;28;20064;-71
2022/03/12 00:34:00;;;;;;;9.77;4.20;;;;;;;;;;5015688;28;20037;-71
2022/03/12 00:36:26;;;;;;;10.45;4.10;;;;;;;;;;5015351;28;20126;-71
2022/03/12 00:38:52;;;;;;;13.55;7.22;;;;;;;;;;5015817;28;20129;-71
2022/03/12 00:41:19;;;;;;;9.65;5.05;;;;;;;;;;5015785;28;20041;-71
2022/03/12 00:43:45;;;;;;;5.45;2.90;;;;;;;;;;5015183;28;20048;-71
2022/03/12 00:46:12;;;;;;;6.93;3.20;;;;;;;;;;5015271;28;20041;-71
2022/03/12 00:48:39;;;;;;;9.65;3.22;;;;;;;;;;5024411;28;20504;-71
2022/03/12 00:51:06;;;;;;;6.90;2.80;;;;;;;;;;5017859;28;20065;-71
2022/03/12 00:53:34;;;;;;;3.50;1.75;;;;;;;;;;5011887;28;20058;-71
2022/03/12 00:56:00;;;;;;;11.60;2.38;;;;;;;;;;4995910;28;20129;-71
2022/03/12 00:58:26;;;;;;;4.80;2.05;;;;;;;;;;4995634;28;20061;-71
2022/03/12 01:00:52;;;;;;;4.72;2.25;;;;;;;;;;4996198;28;20034;-71
2022/03/12 01:03:19;;;;;;;5.05;2.17;;;;;;;;;;4995578;28;20120;-71
2022/03/12 01:05:50;;;;;;;4.43;1.63;;;;;;;;;;4995544;28;20053;-71
2022/03/12 01:08:20;;;;;;;2.30;1.40;;;;;;;;;;4994583;28;20054;-71
2022/03/12 01:10:47;;;;;;;5.97;1.80;;;;;;;;;;4995905;28;20181;-71
2022/03/12 01:13:13;;;;;;;9.75;1.70;;;;;;;;;;4995451;28;20042;-71
2022/03/12 01:15:40;;;;;;;4.82;3.83;;;;;;;;;;4995077;28;20077;-71
2022/03/12 01:18:10;;;;;;;2.92;2.13;;;;;;;;;;4994778;28;20084;-71
2022/03/12 01:20:36;;;;;;;2.83;1.42;;;;;;;;;;4995791;28;20038;-71
2022/03/12 01:23:04;;;;;;;4.53;1.80;;;;;;;;;;4995084;28;20046;-71
2022/03/12 01:25:30;;;;;;;4.60;1.85;;;;;;;;;;4995092;28;20065;-71
2022/03/12 01:27:56;;;;;;;6.82;2.33;;;;;;;;;;4995067;28;20042;-71
2022/03/12 01:30:26;;;;;;;5.50;2.35;;;;;;;;;;4995148;28;20049;-71
2022/03/12 01:32:52;;;;;;;3.42;2.40;;;;;;;;;;4994801;28;20062;-71
2022/03/12 01:35:18;;;;;;;9.98;2.85;;;;;;;;;;4995378;28;20038;-71
2022/03/12 01:37:45;;;;;;;9.60;2.78;;;;;;;;;;4994997;28;20173;-71
2022/03/12 01:40:11;;;;;;;13.15;3.70;;;;;;;;;;4995028;28;20052;-71
2022/03/12 01:42:38;;;;;;;7.20;4.05;;;;;;;;;;4995211;28;20047;-71
2022/03/12 01:45:09;;;;;;;12.73;5.63;;;;;;;;;;4995501;28;20045;-71
2022/03/12 01:47:35;;;;;;;16.10;6.88;;;;;;;;;;4994516;28;20042;-71
2022/03/12 01:50:01;;;;;;;15.60;6.65;;;;;;;;;;4994836;28;20531;-71
2022/03/12 01:52:28;;;;;;;17.08;8.27;;;;;;;;;;4994936;28;20497;-71
2022/03/12 01:54:55;;;;;;;14.70;6.82;;;;;;;;;;5008871;28;20188;-71
2022/03/12 01:57:21;;;;;;;12.10;5.80;;;;;;;;;;5026106;28;20045;-71
2022/03/12 01:59:48;;;;;;;9.60;5.07;;;;;;;;;;5014913;28;20077;-71
2022/03/12 02:02:15;;;;;;;10.52;5.35;;;;;;;;;;5014463;28;20046;-71
2022/03/12 02:04:51;;;;;;;9.68;4.97;;;;;;;;;;5015194;28;20091;-71
2022/03/12 02:07:18;;;;;;;16.77;5.53;;;;;;;;;;5014800;28;20049;-71
2022/03/12 02:09:44;;;;;;;11.57;5.35;;;;;;;;;;4996920;28;20111;-71
2022/03/12 02:12:11;;;;;;;11.60;5.45;;;;;;;;;;5014820;28;20053;-71
2022/03/12 02:14:38;;;;;;;10.30;4.70;;;;;;;;;;5014486;28;20069;-71
2022/03/12 02:17:11;;;;;;;11.68;5.10;;;;;;;;;;5014012;28;20538;-71
2022/03/12 02:19:39;;;;;;;10.95;4.70;;;;;;;;;;5014486;28;20078;-71
2022/03/12 02:22:14;;;;;;;11.10;6.60;;;;;;;;;;5018392;28;20050;-71
2022/03/12 02:24:40;;;;;;;16.65;12.25;;;;;;;;;;5018200;28;20045;-71
2022/03/12 02:27:10;;;;;;;10.45;4.10;;;;;;;;;;5017968;28;20050;-71
2022/03/12 02:29:37;;;;;;;9.27;4.90;;;;;;;;;;5017724;28;20045;-71
2022/03/12 02:32:09;;;;;;;7.68;4.22;;;;;;;;;;5018226;28;20072;-71
2022/03/12 02:34:42;;;;;;;10.52;4.60;;;;;;;;;;5018875;28;20100;-71
2022/03/12 02:37:09;;;;;;;8.57;4.50;;;;;;;;;;5017556;28;20037;-71
2022/03/12 02:39:38;;;;;;;12.98;5.05;;;;;;;;;;5018147;28;20048;-71
2022/03/12 02:42:07;;;;;;;14.48;5.07;;;;;;;;;;5018591;28;20107;-71
2022/03/12 02:44:34;;;;;;;9.52;5.13;;;;;;;;;;5018161;28;20095;-71
2022/03/12 02:47:06;;;;;;;13.50;6.75;;;;;;;;;;5018236;28;20144;-71
2022/03/12 02:49:37;;;;;;;12.82;6.68;;;;;;;;;;5017863;28;20049;-71
2022/03/12 02:52:04;;;;;;;13.70;6.07;;;;;;;;;;5018015;28;20077;-71
2022/03/12 02:54:30;;;;;;;17.65;6.43;;;;;;;;;;5007113;28;20153;-71
2022/03/12 02:56:56;;;;;;;12.52;6.53;;;;;;;;;;4997820;28;20077;-71
2022/03/12 02:59:22;;;;;;;14.55;6.50;;;;;;;;;;4998233;28;20053;-71
2022/03/12 03:01:50;;;;;;;13.68;7.60;;;;;;;;;;4997898;28;20077;-71
2022/03/12 03:04:20;;;;;;;12.73;6.88;;;;;;;;;;4997840;28;20038;-71
2022/03/12 03:06:46;;;;;;;14.93;6.70;;;;;;;;;;5004048;28;20213;-71
2022/03/12 03:09:13;;;;;;;16.17;6.68;;;;;;;;;;5025961;28;20069;-71
2022/03/12 03:11:39;;;;;;;18.40;7.63;;;;;;;;;;5037877;28;20041;-71
2022/03/12 03:14:10;;;;;;;14.32;6.55;;;;;;;;;;5037343;28;20043;-71
2022/03/12 03:16:37;;;;;;;19.50;6.53;;;;;;;;;;5037124;28;20059;-71
2022/03/12 03:19:03;;;;;;;14.15;6.95;;;;;;;;;;5037218;28;20045;-71
2022/03/12 03:21:29;;;;;;;17.27;7.60;;;;;;;;;;5037595;28;20042;-71
2022/03/12 03:23:55;;;;;;;19.42;8.15;;;;;;;;;;5037125;28;20546;-71
2022/03/12 03:26:35;;;;;;;16.17;7.65;;;;;;;;;;5037043;28;20049;-71
2022/03/12 03:29:02;;;;;;;19.45;7.90;;;;;;;;;;5036908;28;20091;-71
2022/03/12 03:31:29;;;;;;;20.27;8.65;;;;;;;;;;5036016;28;20045;-71
2022/03/12 03:33:55;;;;;;;18.98;9.57;;;;;;;;;;5036963;28;20037;-71
2022/03/12 03:36:21;;;;;;;19.90;9.57;;;;;;;;;;5036964;28;20065;-71
2022/03/12 03:38:47;;;;;;;19.25;10.00;;;;;;;;;;5036645;28;20045;-71
2022/03/12 03:41:13;;;;;;;22.65;8.98;;;;;;;;;;5036924;28;20103;-71
2022/03/12 03:43:40;;;;;;;13.05;8.23;;;;;;;;;;5036810;28;20044;-71
2022/03/12 03:46:06;;;;;;;15.30;8.30;;;;;;;;;;5018715;28;20500;-71
2022/03/12 03:48:39;;;;;;;20.30;9.50;;;;;;;;;;5036543;28;20077;-71
2022/03/12 03:51:05;;;;;;;19.50;9.52;;;;;;;;;;5018557;28;20042;-71
2022/03/12 03:53:31;;;;;;;28.95;11.02;;;;;;;;;;5033725;28;20034;-71
2022/03/12 03:55:59;;;;;;;23.73;11.00;;;;;;;;;;5017064;28;20042;-71
2022/03/12 03:58:26;;;;;;;25.70;10.27;;;;;;;;;;5016876;28;20042;-71
2022/03/12 04:01:00;;;;;;;22.02;10.48;;;;;;;;;;5016422;28;20157;-71
2022/03/12 04:03:32;;;;;;;17.08;7.38;;;;;;;;;;5016597;28;20049;-71
2022/03/12 04:05:59;;;;;;;19.20;9.25;;;;;;;;;;5016326;28;20037;-71
2022/03/12 04:08:25;;;;;;;17.42;8.45;;;;;;;;;;5016542;28;20124;-71
2022/03/12 04:10:51;;;;;;;17.23;7.85;;;;;;;;;;5016655;28;20038;-71
2022/03/12 04:13:22;;;;;;;26.40;6.10;;;;;;;;;;5016074;28;20096;-71
2022/03/12 04:15:48;;;;;;;7.38;4.28;;;;;;;;;;5016741;28;20066;-71
2022/03/12 04:18:21;;;;;;;8.93;4.80;;;;;;;;;;5017290;28;20037;-71
2022/03/12 04:20:47;;;;;;;8.45;4.53;;;;;;;;;;5026686;28;20069;-71
2022/03/12 04:23:19;;;;;;;8.85;4.60;;;;;;;;;;5016293;28;20042;-71
2022/03/12 04:25:53;;;;;;;11.93;4.80;;;;;;;;;;5016190;28;20045;-71
2022/03/12 04:28:20;;;;;;;7.35;4.07;;;;;;;;;;5016008;28;20109;-71
2022/03/12 04:30:47;;;;;;;15.70;7.72;;;;;;;;;;5016454;28;20144;-71
2022/03/12 04:33:16;;;;;;;12.68;4.97;;;;;;;;;;5015648;28;20377;-71
2022/03/12 04:35:43;;;;;;;9.65;4.70;;;;;;;;;;5015919;28;20037;-71
2022/03/12 04:38:10;;;;;;;12.48;5.28;;;;;;;;;;5015651;28;20129;-71
2022/03/12 04:40:38;;;;;;;13.57;5.70;;;;;;;;;;5015662;28;20050;-71
2022/03/12 04:43:06;;;;;;;11.77;6.25;;;;;;;;;;5016023;28;20049;-71
2022/03/12 04:45:33;;;;;;;12.05;6.32;;;;;;;;;;5016112;28;20489;-71
2022/03/12 04:47:59;;;;;;;18.17;7.38;;;;;;;;;;5015643;28;20052;-71
2022/03/12 04:50:25;;;;;;;20.50;9.13;;;;;;;;;;5015660;28;20054;-71
2022/03/12 04:52:53;;;;;;;14.98;8.52;;;;;;;;;;5015563;28;20053;-71
2022/03/12 04:55:21;;;;;;;17.20;7.68;;;;;;;;;;4997590;28;20042;-71
2022/03/12 04:57:48;;;;;;;17.45;7.65;;;;;;;;;;4995810;28;20057;-71
2022/03/12 05:00:17;;;;;;;20.63;7.75;;;;;;;;;;4995540;28;20065;-71
2022/03/12 05:02:43;;;;;;;14.88;6.65;;;;;;;;;;4995930;28;20069;-71
2022/03/12 05:05:14;;;;;;;9.68;5.60;;;;;;;;;;4995835;28;20115;-71
2022/03/12 05:07:44;;;;;;;14.10;5.95;;;;;;;;;;4995602;28;20438;-71
2022/03/12 05:10:11;;;;;;;11.88;6.45;;;;;;;;;;4995626;28;20049;-71
2022/03/12 05:12:40;;;;;;;15.77;6.18;;;;;;;;;;4995155;28;20038;-71
2022/03/12 05:15:10;;;;;;;19.00;9.35;;;;;;;;;;4995420;28;20042;-71
2022/03/12 05:17:39;;;;;;;20.90;7.07;;;;;;;;;;4995542;28;20126;-71
2022/03/12 05:20:07;;;;;;;16.48;7.20;;;;;;;;;;4995315;28;20583;-71
2022/03/12 05:22:33;;;;;;;15.23;7.03;;;;;;;;;;4996126;28;20165;-71
2022/03/12 05:24:59;;;;;;;16.48;6.88;;;;;;;;;;4995812;28;20046;-71
2022/03/12 05:27:26;;;;;;;18.25;7.30;;;;;;;;;;4995221;28;20482;-71
2022/03/12 05:29:54;;;;;;;18.98;7.18;;;;;;;;;;5003247;28;20107;-71
2022/03/12 05:32:20;;;;;;;19.33;7.47;;;;;;;;;;5022868;28;20053;-71
2022/03/12 05:34:46;;;;;;;18.85;8.45;;;;;;;;;;5034781;28;20045;-71
2022/03/12 05:37:13;;;;;;;17.67;8.23;;;;;;;;;;5034538;28;20049;-71
2022/03/12 05:39:39;;;;;;;12.23;6.57;;;;;;;;;;5035015;28;20076;-71
2022/03/12 05:42:06;;;;;;;14.95;7.15;;;;;;;;;;5034859;28;20051;-71
2022/03/12 05:44:34;;;;;;;14.65;6.72;;;;;;;;;;5034799;28;20132;-71
2022/03/12 05:47:01;;;;;;;12.13;6.40;;;;;;;;;;5034509;28;20045;-71
2022/03/12 05:49:27;;;;;;;15.80;6.53;;;;;;;;;;5034848;28;20095;-71
2022/03/12 05:51:53;;;;;;;11.35;6.47;;;;;;;;;;5034151;28;20408;-71
2022/03/12 05:54:20;;;;;;;14.98;6.63;;;;;;;;;;5024647;28;20091;-71
2022/03/12 05:56:47;;;;;;;12.10;5.43;;;;;;;;;;5020808;28;20120;-71
2022/03/12 05:59:13;;;;;;;10.90;6.85;;;;;;;;;;5021565;28;20476;-71
2022/03/12 06:01:39;;;;;;;9.65;5.18;;;;;;;;;;5387040;23;20023;-71
2022/03/12 06:04:08;;;;;;;9.63;5.05;;;;;;;;;;5012239;28;20041;-71
2022/03/12 06:06:35;;;;;;;9.10;4.43;;;;;;;;;;5001927;28;20481;-71
2022/03/12 06:09:05;;;;;;;7.40;4.28;;;;;;;;;;5009910;28;20092;-71
2022/03/12 06:11:32;;;;;;;9.55;4.28;;;;;;;;;;5020839;28;20487;-71
2022/03/12 06:14:00;;;;;;;9.98;4.30;;;;;;;;;;5021206;28;20468;-71
2022/03/12 06:16:27;;;;;;;6.85;3.58;;;;;;;;;;5020799;28;20046;-71
2022/03/12 06:18:53;;;;;;;13.98;4.05;;;;;;;;;;5020625;28;20373;-71
2022/03/12 06:21:20;;;;;;;12.77;4.80;;;;;;;;;;5010688;28;20093;-71
2022/03/12 06:23:46;;;;;;;10.80;4.80;;;;;;;;;;5001004;28;20042;-71
2022/03/12 06:26:14;;;;;;;19.80;6.05;;;;;;;;;;5001253;28;20034;-71
2022/03/12 06:28:41;;;;;;;12.45;5.30;;;;;;;;;;5000605;28;20046;-71
2022/03/12 06:31:08;;;;;;;13.40;5.55;;;;;;;;;;5000903;28;20045;-71
2022/03/12 06:33:35;;;;;;;15.10;5.35;;;;;;;;;;5000418;28;20370;-71
2022/03/12 06:36:02;;;;;;;14.02;6.07;;;;;;;;;;5002222;28;20038;-71
2022/03/12 06:38:30;;;;;;;18.02;6.50;;;;;;;;;;5011684;28;20129;-71
2022/03/12 06:40:58;;;;;;;17.48;6.35;;;;;;;;;;5001030;28;20531;-71
2022/03/12 06:43:26;;;;;;;15.88;6.03;;;;;;;;;;5001173;28;20053;-71
2022/03/12 06:45:53;;;;;;;17.95;6.72;;;;;;;;;;5000552;28;20046;-71
2022/03/12 06:48:22;;;;;;;11.70;6.07;;;;;;;;;;4983162;28;20045;-70
2022/03/12 06:50:48;;;;;;;15.60;6.72;;;;;;;;;;5000685;28;20038;-71
2022/03/12 06:53:15;;;;;;;12.98;5.43;;;;;;;;;;5001107;28;20050;-71
2022/03/12 06:55:41;;;;;;;13.10;5.97;;;;;;;;;;5000726;28;20045;-71
2022/03/12 06:58:08;;;;;;;12.38;6.07;;;;;;;;;;5000808;28;20125;-71
2022/03/12 07:00:34;;;;;;;15.05;6.45;;;;;;;;;;5000615;28;20038;-71
2022/03/12 07:03:01;;;;;;;14.27;5.88;;;;;;;;;;5001177;28;20062;-71
2022/03/12 07:05:28;;;;;;;13.48;5.55;;;;;;;;;;5000813;28;20073;-71
2022/03/12 07:07:54;;;;;;;13.60;6.13;;;;;;;;;;4996787;28;20164;-71
2022/03/12 07:10:21;;;;;;;10.43;5.57;;;;;;;;;;4997920;28;20128;-71
2022/03/12 07:12:48;;;;;;;9.50;4.97;;;;;;;;;;4998335;28;20046;-71
2022/03/12 07:15:15;;;;;;;10.00;5.05;;;;;;;;;;4997923;28;20066;-71
2022/03/12 07:17:42;;;;;;;10.60;5.00;;;;;;;;;;4997733;28;20492;-71
2022/03/12 07:20:09;;;;;;;10.65;4.82;;;;;;;;;;4997852;28;20481;-71
2022/03/12 07:22:35;;;;;;;11.98;5.47;;;;;;;;;;4998413;28;20100;-71
2022/03/12 07:25:01;;;;;;;10.50;5.10;;;;;;;;;;4998022;28;20045;-71
2022/03/12 07:27:28;;;;;;;12.23;5.20;;;;;;;;;;4997408;28;20206;-71
2022/03/12 07:29:54;;;;;;;19.17;6.10;;;;;;;;;;4998059;28;20069;-71
2022/03/12 07:32:20;;;;;;;9.60;4.93;;;;;;;;;;4997562;28;20505;-71
2022/03/12 07:34:47;;;;;;;25.02;7.53;;;;;;;;;;4997361;28;20042;-71
2022/03/12 07:37:13;;;;;;;17.05;7.07;;;;;;;;;;4997933;28;20038;-71
2022/03/12 07:39:40;;;;;;;20.05;8.43;;;;;;;;;;4997588;28;20042;-71
2022/03/12 07:42:07;;;;;;;15.55;6.82;;;;;;;;;;5006280;28;20046;-71
2022/03/12 07:44:33;;;;;;;16.02;6.43;;;;;;;;;;5017241;28;20037;-71
2022/03/12 07:47:00;;;;;;;14.13;5.88;;;;;;;;;;5016401;28;20053;-71
2022/03/12 07:49:28;;;;;;;13.18;6.60;;;;;;;;;;5003601;28;20052;-71
2022/03/12 07:51:54;;;;;;;12.50;5.65;;;;;;;;;;5017055;28;20044;-71
2022/03/12 07:54:20;;;;;;;13.38;6.43;;;;;;;;;;5017051;28;20613;-71
2022/03/12 07:56:47;;;;;;;16.08;6.45;;;;;;;;;;5015466;28;20095;-71
2022/03/12 07:59:13;;;;;;;10.27;5.68;;;;;;;;;;4997126;28;20053;-71
2022/03/12 08:01:39;;;;;;;5.82;3.33;;;;;;;;;;4996645;28;20038;-71
2022/03/12 08:04:06;;;;;;;8.30;3.60;;;;;;;;;;4996229;28;20389;-71
2022/03/12 08:06:33;;;;;;;5.20;3.10;;;;;;;;;;4996754;28;20053;-71
2022/03/12 08:08:59;;;;;;;6.35;3.15;;;;;;;;;;4996863;28;20089;-71
2022/03/12 08:11:26;;;;;;;6.65;2.60;;;;;;;;;;4996823;28;20045;-71
2022/03/12 08:14:01;;;;;;;6.22;3.00;;;;;;;;;;4996196;28;20520;-71
2022/03/12 08:16:28;;;;;;;9.45;3.75;;;;;;;;;;4995311;28;20061;-71
2022/03/12 08:18:54;;;;;;;7.28;3.33;;;;;;;;;;5009044;28;20128;-71
2022/03/12 08:21:21;;;;;;;10.57;3.47;;;;;;;;;;5015665;28;20073;-71
2022/03/12 08:23:47;;;;;;;7.65;3.05;;;;;;;;;;5015987;28;20092;-71
2022/03/12 08:26:14;;;;;;;6.78;4.10;;;;;;;;;;5016001;28;20037;-71
2022/03/12 08:28:41;;;;;;;7.88;3.60;;;;;;;;;;5015758;28;20054;-71
2022/03/12 08:31:07;;;;;;;6.82;3.17;;;;;;;;;;5009992;28;20046;-71
2022/03/12 08:33:37;;;;;;;6.28;2.92;;;;;;;;;;5002604;28;20038;-71
2022/03/12 08:36:07;;;;;;;7.32;3.33;;;;;;;;;;5005622;28;20595;-71
2022/03/12 08:38:37;;;;;;;7.57;3.45;;;;;;;;;;5006524;28;20049;-71
2022/03/12 08:41:06;;;;;;;6.70;3.25;;;;;;;;;;5004130;28;20042;-71
2022/03/12 08:43:33;;;;;;;7.05;3.97;;;;;;;;;;5009761;28;20046;-71
2022/03/12 08:46:00;;;;;;;5.70;3.55;;;;;;;;;;5006532;28;20053;-71
2022/03/12 08:48:27;;;;;;;9.98;2.75;;;;;;;;;;4998490;28;20034;-70
2022/03/12 08:50:53;;;;;;;3.55;2.03;;;;;;;;;;4995395;28;20038;-71
2022/03/12 08:53:21;;;;;;;5.22;3.42;;;;;;;;;;4995720;28;20117;-71
2022/03/12 08:55:48;;;;;;;7.63;2.17;;;;;;;;;;5004822;28;20038;-71
2022/03/12 08:58:14;;;;;;;13.07;2.78;;;;;;;;;;4984732;28;20030;-71
2022/03/12 09:00:42;;;;;;;7.40;2.60;;;;;;;;;;4989017;28;20066;-71
2022/03/12 09:03:09;;;;;;;20.52;3.10;;;;;;;;;;5001885;28;20058;-71
2022/03/12 09:05:35;;;;;;;8.43;3.25;;;;;;;;;;4995047;28;20046;-71
2022/03/12 09:08:01;;;;;;;5.45;3.08;;;;;;;;;;5003596;28;20041;-71
2022/03/12 09:10:28;;;;;;;6.13;3.70;;;;;;;;;;5008566;28;20056;-72
2022/03/12 09:12:54;;;;;;;16.65;3.80;;;;;;;;;;5003154;28;20108;-71
2022/03/12 09:15:24;;;;;;;10.13;3.47;;;;;;;;;;4996015;28;20049;-72
2022/03/12 09:17:50;;;;;;;7.00;3.60;;;;;;;;;;5009899;28;20554;-71
2022/03/12 09:20:17;;;;;;;22.13;4.60;;;;;;;;;;5008777;28;20046;-71
2022/03/12 09:22:43;;;;;;;9.55;3.78;;;;;;;;;;5001529;28;20054;-71
2022/03/12 09:25:13;;;;;;;11.20;4.40;;;;;;;;;;5003469;28;20125;-71
2022/03/12 09:27:45;;;;;;;6.60;3.10;;;;;;;;;;4995155;28;20038;-71
2022/03/12 09:30:13;;;;;;;7.53;4.75;;;;;;;;;;4997992;28;20054;-71
2022/03/12 09:32:40;;;;;;;7.65;3.40;;;;;;;;;;4999432;28;20042;-71
2022/03/12 09:35:07;;;;;;;13.18;3.92;;;;;;;;;;4997581;28;20034;-71
2022/03/12 09:37:33;;;;;;;10.77;4.18;;;;;;;;;;5014701;28;20061;-71
2022/03/12 09:40:00;;;;;;;10.73;3.50;;;;;;;;;;5014159;28;20049;-71
2022/03/12 09:42:30;;;;;;;5.18;3.28;;;;;;;;;;5014549;28;20131;-71
2022/03/12 09:44:57;;;;;;;6.57;4.47;;;;;;;;;;5006858;28;20041;-71
2022/03/12 09:47:23;;;;;;;11.77;5.15;;;;;;;;;;4994882;28;20129;-70
2022/03/12 09:49:50;;;;;;;9.70;3.92;;;;;;;;;;4995183;28;20038;-70
2022/03/12 09:52:17;;;;;;;7.50;5.63;;;;;;;;;;5009266;28;20053;-71
2022/03/12 09:54:44;;;;;;;15.48;12.25;;;;;;;;;;5002327;28;20030;-70
2022/03/12 09:57:10;;;;;;;12.10;5.00;;;;;;;;;;5006429;28;20552;-71
2022/03/12 09:59:36;;;;;;;9.73;4.18;;;;;;;;;;4995733;28;20072;-70
2022/03/12 10:02:03;;;;;;;13.25;5.38;;;;;;;;;;5008937;28;20065;-71
2022/03/12 10:04:29;;;;;;;9.60;2.80;;;;;;;;;;5007580;28;20550;-70
2022/03/12 10:06:55;;;;;;;7.00;2.72;;;;;;;;;;5008034;28;20046;-70
2022/03/12 10:09:22;;;;;;;7.45;3.08;;;;;;;;;;4998502;28;20105;-70
2022/03/12 10:11:50;;;;;;;11.27;6.85;;;;;;;;;;4995513;28;20052;-71
2022/03/12 10:14:17;;;;;;;11.25;9.95;;;;;;;;;;4998077;28;20037;-71
2022/03/12 10:16:43;;;;;;;10.45;7.10;;;;;;;;;;4999855;28;20034;-71
2022/03/12 10:19:09;;;;;;;17.25;15.10;;;;;;;;;;4977085;28;20046;-70
2022/03/12 10:21:42;;;;;;;10.38;9.43;;;;;;;;;;4994727;28;20050;-70
2022/03/12 10:24:08;;;;;;;8.40;3.28;;;;;;;;;;4996275;28;20072;-70
2022/03/12 10:26:35;;;;;;;10.32;6.38;;;;;;;;;;5004257;28;20112;-70
2022/03/12 10:29:01;;;;;;;14.68;7.40;;;;;;;;;;5011896;28;20045;-70
2022/03/12 10:31:28;;;;;;;7.13;4.63;;;;;;;;;;5009532;28;20041;-71
2022/03/12 10:34:13;;;;;;;7.10;2.42;;;;;;;;;;4997898;28;20052;-71
2022/03/12 10:36:39;;;;;;;8.55;2.28;;;;;;;;;;5011108;28;20050;-71
2022/03/12 10:39:05;;;;;;;4.95;2.08;;;;;;;;;;4997121;28;20042;-71
2022/03/12 10:41:31;;;;;;;2.78;1.80;;;;;;;;;;5003876;28;20045;-70
2022/03/12 10:43:58;;;;;;;7.10;2.58;;;;;;;;;;5000505;28;20128;-70
2022/03/12 10:46:27;;;;;;;6.55;2.70;;;;;;;;;;4998328;28;20128;-70
2022/03/12 10:48:57;;;;;;;9.45;2.85;;;;;;;;;;5013759;28;20053;-71
2022/03/12 10:51:31;;;;;;;7.25;2.65;;;;;;;;;;5015950;28;20115;-71
2022/03/12 10:54:04;;;;;;;6.28;2.45;;;;;;;;;;5004712;28;20038;-71
2022/03/12 10:56:43;;;;;;;27.38;3.58;;;;;;;;;;5001282;28;20050;-71
2022/03/12 10:59:36;;;;;;;11.73;2.50;;;;;;;;;;5009989;28;20050;-71
2022/03/12 11:02:04;;;;;;;8.10;3.72;;;;;;;;;;4995480;28;20057;-71
2022/03/12 11:04:31;;;;;;;10.15;2.10;;;;;;;;;;5014736;28;20501;-72
2022/03/12 11:06:59;;;;;;;5.22;2.03;;;;;;;;;;5007677;28;20048;-70
2022/03/12 11:09:36;;;;;;;9.25;4.65;;;;;;;;;;5006136;28;20053;-71
2022/03/12 11:12:04;;;;;;;9.20;3.28;;;;;;;;;;5007924;28;20054;-70
2022/03/12 11:14:31;;;;;;;16.77;5.03;;;;;;;;;;5006966;28;20034;-70
2022/03/12 11:16:59;;;;;;;6.22;3.40;;;;;;;;;;5006580;28;20551;-71
2022/03/12 11:19:39;;;;;;;5.40;2.40;;;;;;;;;;5011742;28;20042;-70
2022/03/12 11:22:10;;;;;;;6.97;2.00;;;;;;;;;;5002405;28;20076;-70
2022/03/12 11:24:46;;;;;;;15.88;2.60;;;;;;;;;;5001870;28;20121;-70
2022/03/12 11:27:14;;;;;;;6.72;2.35;;;;;;;;;;4998527;28;20139;-70
2022/03/12 11:29:41;;;;;;;5.53;4.97;;;;;;;;;;5007146;28;20509;-70
2022/03/12 11:32:09;;;;;;;2.72;1.52;;;;;;;;;;4997349;28;20050;-70
2022/03/12 11:34:42;;;;;;;4.43;1.77;;;;;;;;;;5004791;28;20042;-70
2022/03/12 11:37:14;;;;;;;7.00;3.60;;;;;;;;;;5000843;28;20060;-70
2022/03/12 11:39:45;;;;;;;4.38;2.38;;;;;;;;;;5003253;28;20046;-71
2022/03/12 11:42:14;;;;;;;10.65;3.42;;;;;;;;;;5002501;28;20128;-71
2022/03/12 11:44:41;;;;;;;4.68;2.10;;;;;;;;;;4997153;28;20081;-71
2022/03/12 11:47:08;;;;;;;4.35;2.45;;;;;;;;;;5000210;28;20046;-71
2022/03/12 11:49:34;;;;;;;15.95;12.63;;;;;;;;;;5010595;28;20042;-70
2022/03/12 11:52:01;;;;;;;6.13;3.30;;;;;;;;;;5005577;28;20042;-70
2022/03/12 11:54:27;;;;;;;10.05;5.40;;;;;;;;;;5010864;28;20497;-70
2022/03/12 11:56:54;;;;;;;5.80;4.47;;;;;;;;;;5013665;28;20041;-70
2022/03/12 11:59:20;;;;;;;6.25;4.35;;;;;;;;;;5006064;28;20049;-70
2022/03/12 12:02:00;;;;;;;11.55;10.32;;;;;;;;;;5007015;28;20056;-72
2022/03/12 12:04:28;;;;;;;10.07;9.07;;;;;;;;;;5007046;28;20041;-71
2022/03/12 12:06:55;;;;;;;12.43;8.60;;;;;;;;;;5001438;28;20089;-72
2022/03/12 12:09:21;;;;;;;7.68;6.60;;;;;;;;;;4997719;28;20129;-71
2022/03/12 12:11:48;;;;;;;7.40;6.40;;;;;;;;;;4997475;28;20527;-70
2022/03/12 12:14:16;;;;;;;11.38;7.07;;;;;;;;;;5015380;28;20034;-71
2022/03/12 12:16:43;;;;;;;13.50;10.60;;;;;;;;;;4998403;28;20042;-71
2022/03/12 12:19:10;;;;;;;14.27;9.23;;;;;;;;;;4997664;28;20444;-71
2022/03/12 12:21:36;;;;;;;14.40;12.50;;;;;;;;;;5001126;28;20111;-71
2022/03/12 12:24:22;;;;;;;12.18;9.07;;;;;;;;;;4997490;28;20058;-72
2022/03/12 12:26:59;;;;;;;7.43;6.50;;;;;;;;;;5004695;28;20053;-70
2022/03/12 12:29:43;;;;;;;6.30;4.65;;;;;;;;;;5010868;28;20065;-70
2022/03/12 12:32:10;;;;;;;5.03;4.53;;;;;;;;;;5014628;28;20126;-73
2022/03/12 12:34:37;;;;;;;7.90;6.75;;;;;;;;;;5011885;28;20031;-72
2022/03/12 12:37:03;;;;;;;22.60;14.85;;;;;;;;;;5009013;28;20088;-73
2022/03/12 12:39:30;;;;;;;45.30;33.30;;;;;;;;;;5002651;28;20046;-73
2022/03/12 12:41:58;;;;;;;32.83;22.13;;;;;;;;;;4995793;28;20524;-73
2022/03/12 12:44:39;;;;;;;27.63;19.33;;;;;;;;;;5006693;28;20033;-73
2022/03/12 12:47:06;;;;;;;26.45;21.60;;;;;;;;;;5005684;28;20042;-72
2022/03/12 12:49:35;;;;;;;14.40;11.32;;;;;;;;;;4999319;28;20053;-73
2022/03/12 12:52:02;;;;;;;9.02;5.78;;;;;;;;;;4987470;28;20418;-73
2022/03/12 12:54:48;;;;;;;5.95;4.90;;;;;;;;;;5005733;28;20031;-73
2022/03/12 12:57:14;;;;;;;5.05;4.35;;;;;;;;;;4988520;28;20050;-73
2022/03/12 12:59:48;;;;;;;5.35;4.20;;;;;;;;;;5004320;28;20038;-73
2022/03/12 13:02:14;;;;;;;4.85;4.07;;;;;;;;;;5007198;28;20058;-72
2022/03/12 13:05:03;;;;;;;6.65;3.95;;;;;;;;;;4996230;28;20038;-73
2022/03/12 13:07:29;;;;;;;4.47;3.63;;;;;;;;;;5004605;28;20061;-73
2022/03/12 13:09:57;;;;;;;6.05;3.42;;;;;;;;;;4991272;28;20408;-73
2022/03/12 13:12:57;;;;;;;6.97;2.92;;;;;;;;;;4994364;28;20121;-73
2022/03/12 13:15:36;;;;;;;5.23;3.60;;;;;;;;;;4988844;28;20068;-73
2022/03/12 13:18:10;;;;;;;5.20;3.30;;;;;;;;;;4995811;28;20528;-73
2022/03/12 13:20:42;;;;;;;3.13;2.83;;;;;;;;;;5004522;28;20054;-71
2022/03/12 13:23:08;;;;;;;8.50;5.68;;;;;;;;;;5007068;28;20042;-73
2022/03/12 13:25:47;;;;;;;13.25;3.08;;;;;;;;;;4996154;28;20042;-72
2022/03/12 13:28:14;;;;;;;7.03;2.78;;;;;;;;;;4999905;28;20046;-73
2022/03/12 13:30:40;;;;;;;4.68;3.20;;;;;;;;;;4993440;28;20054;-73
2022/03/12 13:33:08;;;;;;;3.63;2.40;;;;;;;;;;5002929;28;20033;-73
2022/03/12 13:35:34;;;;;;;4.00;3.35;;;;;;;;;;5013816;28;20046;-73
2022/03/12 13:38:01;;;;;;;6.55;4.30;;;;;;;;;;5014241;28;20045;-73
2022/03/12 13:40:28;;;;;;;3.88;1.85;;;;;;;;;;5007412;28;20046;-73
2022/03/12 13:43:02;;;;;;;2.67;2.30;;;;;;;;;;5006062;28;20042;-73
2022/03/12 13:45:33;;;;;;;2.45;2.25;;;;;;;;;;4998735;28;20052;-73
2022/03/12 13:48:00;;;;;;;6.68;6.07;;;;;;;;;;4991192;28;20042;-73
2022/03/12 13:50:28;;;;;;;6.10;4.55;;;;;;;;;;4997997;28;20404;-73
2022/03/12 13:52:58;;;;;;;4.20;3.80;;;;;;;;;;4999526;28;20057;-73
2022/03/12 13:55:24;;;;;;;5.77;3.90;;;;;;;;;;5000510;28;20042;-73
2022/03/12 13:57:57;;;;;;;6.32;4.18;;;;;;;;;;4995667;28;20044;-71
2022/03/12 14:00:26;;;;;;;6.18;5.57;;;;;;;;;;5006281;28;20053;-72
2022/03/12 14:02:57;;;;;;;5.47;4.60;;;;;;;;;;4996305;28;20524;-71
2022/03/12 14:05:44;;;;;;;4.10;3.58;;;;;;;;;;4995954;28;20046;-70
2022/03/12 14:08:16;;;;;;;9.68;6.95;;;;;;;;;;4997534;28;20049;-70
2022/03/12 14:10:52;;;;;;;4.93;4.07;;;;;;;;;;4995540;28;20053;-72
2022/03/12 14:13:20;;;;;;;12.50;8.15;;;;;;;;;;4993954;28;20057;-72
2022/03/12 14:15:47;;;;;;;8.65;7.20;;;;;;;;;;4996325;28;20069;-75
2022/03/12 14:18:20;;;;;;;5.50;5.00;;;;;;;;;;4998582;28;20041;-75
2022/03/12 14:20:49;;;;;;;3.80;3.20;;;;;;;;;;4998539;28;20500;-75
2022/03/12 14:23:18;;;;;;;3.55;3.03;;;;;;;;;;5006201;28;20045;-73
2022/03/12 14:25:45;;;;;;;4.88;2.85;;;;;;;;;;5000485;28;20041;-74
2022/03/12 14:28:11;;;;;;;5.15;2.90;;;;;;;;;;5006321;28;20047;-72
2022/03/12 14:30:38;;;;;;;3.53;3.22;;;;;;;;;;5010871;28;20519;-74
2022/03/12 14:33:06;;;;;;;3.38;2.78;;;;;;;;;;4998004;28;20050;-74
2022/03/12 14:35:35;;;;;;;10.85;8.20;;;;;;;;;;4999928;28;20042;-74
2022/03/12 14:38:06;;;;;;;5.68;3.25;;;;;;;;;;5003933;28;20041;-74
2022/03/12 14:40:35;;;;;;;;;;;;;;;;;;5015557;28;20069;-74
2022/03/12 14:43:02;;;;;;;4.55;2.80;;;;;;;;;;5007978;28;19948;-74